Time;durP1;ratioP1;P1;durP2;ratioP2;P2;SDS_P1;SDS_P2;PMS_P1;PMS_P2;Temp;Humidity;BMP_temperature;BMP_pressure;BME280_temperature;BME280_humidity;BME280_pressure;Samples;Min_cycle;Max_cycle;Signal;HPM_P1;HPM_P2
2021/03/23 00:01:05;;;;;;;2.78;1.80;;;;;;;;;;5102086;27;20066;-63
2021/03/23 00:03:33;;;;;;;2.35;1.70;;;;;;;;;;5120014;27;20107;-62
2021/03/23 00:05:58;;;;;;;2.20;1.50;;;;;;;;;;5107999;27;20955;-63
2021/03/23 00:08:38;;;;;;;2.60;1.25;;;;;;;;;;5086358;27;20050;-63
2021/03/23 00:11:13;;;;;;;2.85;1.50;;;;;;;;;;5102995;27;20077;-62
2021/03/23 00:13:39;;;;;;;2.10;1.60;;;;;;;;;;5119484;27;20036;-63
2021/03/23 00:16:04;;;;;;;2.28;1.60;;;;;;;;;;5119007;27;20040;-63
2021/03/23 00:18:30;;;;;;;2.42;1.55;;;;;;;;;;5121015;27;21209;-63
2021/03/23 00:20:56;;;;;;;2.88;1.80;;;;;;;;;;5099152;27;20774;-62
2021/03/23 00:23:21;;;;;;;2.22;1.50;;;;;;;;;;5120075;27;20396;-62
2021/03/23 00:25:47;;;;;;;2.47;1.30;;;;;;;;;;5121090;27;20081;-62
2021/03/23 00:28:12;;;;;;;2.88;1.60;;;;;;;;;;5119059;27;20044;-62
2021/03/23 00:30:38;;;;;;;2.80;1.65;;;;;;;;;;5118667;27;20024;-62
2021/03/23 00:33:03;;;;;;;3.22;1.33;;;;;;;;;;5107623;27;20032;-62
2021/03/23 00:35:29;;;;;;;2.20;1.35;;;;;;;;;;5119079;27;20024;-62
2021/03/23 00:37:55;;;;;;;2.22;1.30;;;;;;;;;;5118382;27;20472;-62
2021/03/23 00:40:24;;;;;;;3.28;1.42;;;;;;;;;;5087427;27;20036;-62
2021/03/23 00:42:50;;;;;;;2.33;1.30;;;;;;;;;;5094228;27;20031;-62
2021/03/23 00:45:15;;;;;;;2.03;1.27;;;;;;;;;;5118896;27;20032;-62
2021/03/23 00:47:41;;;;;;;2.28;1.45;;;;;;;;;;5124585;27;20115;-62
2021/03/23 00:50:07;;;;;;;1.98;1.23;;;;;;;;;;5120395;27;20104;-62
2021/03/23 00:52:33;;;;;;;1.58;1.27;;;;;;;;;;5089706;27;20119;-62
2021/03/23 00:54:58;;;;;;;1.92;1.30;;;;;;;;;;5102320;27;20042;-62
2021/03/23 00:57:24;;;;;;;2.45;1.27;;;;;;;;;;5121172;27;20078;-62
2021/03/23 00:59:49;;;;;;;1.80;1.40;;;;;;;;;;5117323;27;20500;-62
2021/03/23 01:02:15;;;;;;;2.88;1.40;;;;;;;;;;5119181;27;20389;-62
2021/03/23 01:04:40;;;;;;;2.00;1.38;;;;;;;;;;5118210;27;20458;-62
2021/03/23 01:07:06;;;;;;;1.95;1.20;;;;;;;;;;5118569;27;20036;-62
2021/03/23 01:09:31;;;;;;;1.88;1.08;;;;;;;;;;5118970;27;20097;-62
2021/03/23 01:11:56;;;;;;;2.75;1.30;;;;;;;;;;5102587;27;20043;-62
2021/03/23 01:14:22;;;;;;;2.45;1.40;;;;;;;;;;5064184;27;20036;-62
2021/03/23 01:16:47;;;;;;;1.95;1.33;;;;;;;;;;5118429;27;20032;-62
2021/03/23 01:19:13;;;;;;;2.53;1.40;;;;;;;;;;5100582;27;20040;-62
2021/03/23 01:21:39;;;;;;;2.28;1.23;;;;;;;;;;5119028;27;20032;-62
2021/03/23 01:24:05;;;;;;;1.75;1.25;;;;;;;;;;5119482;27;20032;-63
2021/03/23 01:26:31;;;;;;;1.13;0.95;;;;;;;;;;5106833;27;20061;-63
2021/03/23 01:28:56;;;;;;;2.55;1.30;;;;;;;;;;5115877;27;20054;-62
2021/03/23 01:31:21;;;;;;;2.95;1.35;;;;;;;;;;5119304;27;20032;-62
2021/03/23 01:33:47;;;;;;;2.35;1.20;;;;;;;;;;5117925;27;20035;-62
2021/03/23 01:36:12;;;;;;;2.28;1.40;;;;;;;;;;5117942;27;20096;-62
2021/03/23 01:38:38;;;;;;;1.65;1.20;;;;;;;;;;5119411;27;20494;-62
2021/03/23 01:41:03;;;;;;;2.17;1.10;;;;;;;;;;5118758;27;20024;-62
2021/03/23 01:43:31;;;;;;;2.05;1.33;;;;;;;;;;5119322;27;20053;-62
2021/03/23 01:45:58;;;;;;;1.42;1.10;;;;;;;;;;5099173;27;20115;-62
2021/03/23 01:48:31;;;;;;;1.75;1.30;;;;;;;;;;5119238;27;20984;-62
2021/03/23 01:51:04;;;;;;;1.83;1.30;;;;;;;;;;5118903;27;20617;-62
2021/03/23 01:53:37;;;;;;;1.58;1.10;;;;;;;;;;5107245;27;20501;-62
2021/03/23 01:56:04;;;;;;;1.63;1.15;;;;;;;;;;5118230;27;20036;-66
2021/03/23 01:58:30;;;;;;;2.47;1.30;;;;;;;;;;5119024;27;20497;-62
2021/03/23 02:00:55;;;;;;;2.15;1.20;;;;;;;;;;5097494;27;20023;-62
2021/03/23 02:03:21;;;;;;;1.50;1.13;;;;;;;;;;5117357;27;20089;-62
2021/03/23 02:05:56;;;;;;;2.15;1.15;;;;;;;;;;5117581;27;20020;-62
2021/03/23 02:08:22;;;;;;;1.92;1.15;;;;;;;;;;5088554;27;20048;-63
2021/03/23 02:10:47;;;;;;;1.95;1.10;;;;;;;;;;5117117;27;20044;-62
2021/03/23 02:13:13;;;;;;;1.65;1.20;;;;;;;;;;5099679;27;20028;-63
2021/03/23 02:15:38;;;;;;;3.22;1.60;;;;;;;;;;5101774;27;20891;-62
2021/03/23 02:18:08;;;;;;;1.88;1.10;;;;;;;;;;5106955;27;20030;-62
2021/03/23 02:20:34;;;;;;;1.73;1.10;;;;;;;;;;5117852;27;20038;-62
2021/03/23 02:23:08;;;;;;;2.47;1.30;;;;;;;;;;5117936;27;20436;-62
2021/03/23 02:25:34;;;;;;;2.40;1.30;;;;;;;;;;5100858;27;20039;-62
2021/03/23 02:27:59;;;;;;;1.10;0.93;;;;;;;;;;5071468;27;20032;-62
2021/03/23 02:30:30;;;;;;;2.42;1.30;;;;;;;;;;5117727;27;20043;-63
2021/03/23 02:32:56;;;;;;;1.17;1.00;;;;;;;;;;5119171;27;20036;-62
2021/03/23 02:35:21;;;;;;;2.40;1.05;;;;;;;;;;5117667;27;20032;-63
2021/03/23 02:37:47;;;;;;;1.60;1.05;;;;;;;;;;5119660;27;20047;-62
2021/03/23 02:40:13;;;;;;;1.15;1.05;;;;;;;;;;5119681;27;20087;-62
2021/03/23 02:42:39;;;;;;;2.05;0.98;;;;;;;;;;5091072;27;20035;-62
2021/03/23 02:45:05;;;;;;;1.25;0.98;;;;;;;;;;5120763;27;20036;-62
2021/03/23 02:47:30;;;;;;;1.98;1.20;;;;;;;;;;5120583;27;20100;-62
2021/03/23 02:49:56;;;;;;;1.75;1.10;;;;;;;;;;5120793;27;20479;-62
2021/03/23 02:52:21;;;;;;;2.38;1.60;;;;;;;;;;5122151;27;20024;-62
2021/03/23 02:54:47;;;;;;;1.75;1.05;;;;;;;;;;5119889;27;20402;-62
2021/03/23 02:57:12;;;;;;;2.22;1.35;;;;;;;;;;5119775;27;20042;-64
2021/03/23 02:59:38;;;;;;;1.60;1.15;;;;;;;;;;5119893;27;20477;-62
2021/03/23 03:02:04;;;;;;;1.98;1.23;;;;;;;;;;5121088;27;20027;-62
2021/03/23 03:04:33;;;;;;;2.10;1.20;;;;;;;;;;5087354;27;20148;-62
2021/03/23 03:06:59;;;;;;;2.35;1.25;;;;;;;;;;5109050;27;20027;-62
2021/03/23 03:09:24;;;;;;;2.35;1.08;;;;;;;;;;5102181;27;20036;-63
2021/03/23 03:11:50;;;;;;;2.83;1.35;;;;;;;;;;5122014;27;20763;-62
2021/03/23 03:14:16;;;;;;;2.35;1.33;;;;;;;;;;5121429;27;20036;-62
2021/03/23 03:16:41;;;;;;;1.77;1.00;;;;;;;;;;5125382;27;20085;-62
2021/03/23 03:19:07;;;;;;;2.38;1.20;;;;;;;;;;5108111;27;20478;-62
2021/03/23 03:21:32;;;;;;;1.20;1.10;;;;;;;;;;5085935;27;20064;-62
2021/03/23 03:23:58;;;;;;;1.60;1.10;;;;;;;;;;5120161;27;20096;-62
2021/03/23 03:26:23;;;;;;;1.73;1.13;;;;;;;;;;5119116;27;20034;-65
2021/03/23 03:28:52;;;;;;;1.40;1.10;;;;;;;;;;5119769;27;20528;-62
2021/03/23 03:31:23;;;;;;;2.38;1.17;;;;;;;;;;5120064;27;20943;-62
2021/03/23 03:33:48;;;;;;;2.30;1.17;;;;;;;;;;5103285;27;20031;-62
2021/03/23 03:36:14;;;;;;;1.40;1.00;;;;;;;;;;5119572;27;20032;-62
2021/03/23 03:38:40;;;;;;;2.17;1.10;;;;;;;;;;5121427;27;20024;-62
2021/03/23 03:41:05;;;;;;;1.23;1.00;;;;;;;;;;5120240;27;20035;-62
2021/03/23 03:43:32;;;;;;;1.42;0.93;;;;;;;;;;5121315;27;20036;-62
2021/03/23 03:45:57;;;;;;;1.95;1.00;;;;;;;;;;5084050;27;20151;-62
2021/03/23 03:48:23;;;;;;;1.30;1.05;;;;;;;;;;5099917;27;20054;-62
2021/03/23 03:50:48;;;;;;;1.45;0.90;;;;;;;;;;5084333;27;20171;-62
2021/03/23 03:53:14;;;;;;;1.35;1.02;;;;;;;;;;5101744;27;20043;-62
2021/03/23 03:55:41;;;;;;;1.48;1.02;;;;;;;;;;5102549;27;20031;-62
2021/03/23 03:58:07;;;;;;;1.00;0.80;;;;;;;;;;5100728;27;20184;-63
2021/03/23 04:00:32;;;;;;;2.15;1.20;;;;;;;;;;5108495;27;20036;-63
2021/03/23 04:02:59;;;;;;;1.67;1.00;;;;;;;;;;5083967;27;20028;-63
2021/03/23 04:05:30;;;;;;;1.10;0.93;;;;;;;;;;5096126;27;20031;-63
2021/03/23 04:07:55;;;;;;;0.98;0.80;;;;;;;;;;5118816;27;20655;-66
2021/03/23 04:10:21;;;;;;;1.38;1.10;;;;;;;;;;5100919;27;20045;-62
2021/03/23 04:12:47;;;;;;;1.50;0.88;;;;;;;;;;5119128;27;20031;-62
2021/03/23 04:15:24;;;;;;;1.50;0.93;;;;;;;;;;5120600;27;21095;-62
2021/03/23 04:17:49;;;;;;;1.38;0.90;;;;;;;;;;5120040;27;20047;-63
2021/03/23 04:20:15;;;;;;;1.45;1.00;;;;;;;;;;5119536;27;20043;-62
2021/03/23 04:22:40;;;;;;;1.15;0.90;;;;;;;;;;5121543;27;20035;-62
2021/03/23 04:25:10;;;;;;;1.20;1.10;;;;;;;;;;5084371;27;20035;-62
2021/03/23 04:27:36;;;;;;;1.40;1.17;;;;;;;;;;5107728;27;20035;-62
2021/03/23 04:30:01;;;;;;;1.75;0.90;;;;;;;;;;5100528;27;20105;-62
2021/03/23 04:32:27;;;;;;;1.90;1.20;;;;;;;;;;5119997;27;20093;-62
2021/03/23 04:34:52;;;;;;;1.88;1.10;;;;;;;;;;5119047;27;20107;-62
2021/03/23 04:37:18;;;;;;;1.60;1.10;;;;;;;;;;5118827;27;20042;-62
2021/03/23 04:39:43;;;;;;;1.77;1.10;;;;;;;;;;5082818;27;20379;-62
2021/03/23 04:42:09;;;;;;;1.55;0.98;;;;;;;;;;5102344;27;20036;-62
2021/03/23 04:44:34;;;;;;;1.48;1.02;;;;;;;;;;5120186;27;20066;-62
2021/03/23 04:47:00;;;;;;;1.92;0.90;;;;;;;;;;5120434;27;20497;-62
2021/03/23 04:49:25;;;;;;;1.30;0.90;;;;;;;;;;5101327;27;20044;-62
2021/03/23 04:51:51;;;;;;;3.25;1.38;;;;;;;;;;5119492;27;20023;-62
2021/03/23 04:54:16;;;;;;;1.73;0.93;;;;;;;;;;5106747;27;20047;-61
2021/03/23 04:56:43;;;;;;;2.08;1.27;;;;;;;;;;5100086;27;20444;-62
2021/03/23 04:59:09;;;;;;;2.15;1.00;;;;;;;;;;5117771;27;20067;-62
2021/03/23 05:01:35;;;;;;;1.65;1.00;;;;;;;;;;5120116;27;20948;-62
2021/03/23 05:04:03;;;;;;;2.30;1.20;;;;;;;;;;5100419;27;20036;-62
2021/03/23 05:06:29;;;;;;;1.40;1.10;;;;;;;;;;5119705;27;20035;-62
2021/03/23 05:08:54;;;;;;;1.52;1.10;;;;;;;;;;5107794;27;20044;-62
2021/03/23 05:11:22;;;;;;;2.40;1.38;;;;;;;;;;5120495;27;20031;-62
2021/03/23 05:13:48;;;;;;;2.03;1.27;;;;;;;;;;5118323;27;20035;-62
2021/03/23 05:16:13;;;;;;;2.33;1.50;;;;;;;;;;5118181;27;20035;-62
2021/03/23 05:18:39;;;;;;;1.65;1.20;;;;;;;;;;5103371;27;20038;-62
2021/03/23 05:21:04;;;;;;;1.77;1.25;;;;;;;;;;5120180;27;20024;-62
2021/03/23 05:23:30;;;;;;;1.55;1.05;;;;;;;;;;5083338;27;20064;-62
2021/03/23 05:25:56;;;;;;;1.63;1.20;;;;;;;;;;5101352;27;20035;-62
2021/03/23 05:28:21;;;;;;;2.25;1.27;;;;;;;;;;5118558;27;20035;-62
2021/03/23 05:30:47;;;;;;;2.38;1.30;;;;;;;;;;5101121;27;20036;-63
2021/03/23 05:33:13;;;;;;;2.00;1.35;;;;;;;;;;5119583;27;20522;-62
2021/03/23 05:35:38;;;;;;;1.98;1.20;;;;;;;;;;5099764;27;20126;-62
2021/03/23 05:38:04;;;;;;;1.63;1.20;;;;;;;;;;5118246;27;20020;-62
2021/03/23 05:40:34;;;;;;;2.47;1.33;;;;;;;;;;5100514;27;20066;-62
2021/03/23 05:43:08;;;;;;;2.13;1.30;;;;;;;;;;5081639;27;20514;-62
2021/03/23 05:45:36;;;;;;;2.00;1.30;;;;;;;;;;5118121;27;20028;-62
2021/03/23 05:48:19;;;;;;;2.03;1.50;;;;;;;;;;5099848;27;20745;-62
2021/03/23 05:51:18;;;;;;;1.52;1.10;;;;;;;;;;5086892;27;20949;-62
2021/03/23 05:53:47;;;;;;;1.98;1.30;;;;;;;;;;5103067;27;20054;-62
2021/03/23 05:56:13;;;;;;;1.30;1.20;;;;;;;;;;5079891;27;20113;-62
2021/03/23 05:58:40;;;;;;;2.38;1.48;;;;;;;;;;5081813;27;20073;-62
2021/03/23 06:01:17;;;;;;;2.35;1.38;;;;;;;;;;5082944;27;20027;-63
2021/03/23 06:04:03;;;;;;;3.42;1.60;;;;;;;;;;5100353;27;20036;-62
2021/03/23 06:06:38;;;;;;;1.80;1.40;;;;;;;;;;5122369;27;20078;-62
2021/03/23 06:09:04;;;;;;;1.73;1.38;;;;;;;;;;5118415;27;20068;-65
2021/03/23 06:11:42;;;;;;;2.75;1.55;;;;;;;;;;5117462;27;20046;-63
2021/03/23 06:14:19;;;;;;;2.15;1.50;;;;;;;;;;5117911;27;20035;-62
2021/03/23 06:16:55;;;;;;;2.33;1.65;;;;;;;;;;5122580;27;20031;-62
2021/03/23 06:19:39;;;;;;;2.63;1.70;;;;;;;;;;5084264;27;20544;-62
2021/03/23 06:22:25;;;;;;;3.05;1.70;;;;;;;;;;5073131;27;20044;-62
2021/03/23 06:25:06;;;;;;;1.98;1.77;;;;;;;;;;5088987;27;20078;-62
2021/03/23 06:27:53;;;;;;;2.40;1.83;;;;;;;;;;5114702;27;20025;-62
2021/03/23 06:30:40;;;;;;;2.47;1.70;;;;;;;;;;5118220;27;20648;-62
2021/03/23 06:33:10;;;;;;;2.10;1.80;;;;;;;;;;5117336;27;20040;-62
2021/03/23 06:35:44;;;;;;;2.45;1.60;;;;;;;;;;5070855;27;20676;-63
2021/03/23 06:38:20;;;;;;;2.17;1.73;;;;;;;;;;5088548;27;20928;-62
2021/03/23 06:41:11;;;;;;;3.28;1.88;;;;;;;;;;5115949;27;20071;-62
2021/03/23 06:43:37;;;;;;;3.33;2.42;;;;;;;;;;5116540;27;20036;-62
2021/03/23 06:46:04;;;;;;;3.63;2.65;;;;;;;;;;5099017;27;20039;-62
2021/03/23 06:48:30;;;;;;;4.13;2.75;;;;;;;;;;5116515;27;20036;-63
2021/03/23 06:51:10;;;;;;;2.95;2.25;;;;;;;;;;5080921;27;20032;-63
2021/03/23 06:53:36;;;;;;;3.13;2.55;;;;;;;;;;5099108;27;20040;-62
2021/03/23 06:56:22;;;;;;;5.05;4.25;;;;;;;;;;5118239;27;20040;-62
2021/03/23 06:59:13;;;;;;;4.63;3.03;;;;;;;;;;5116806;27;20796;-62
2021/03/23 07:01:51;;;;;;;3.50;2.47;;;;;;;;;;5105228;27;20050;-62
2021/03/23 07:04:16;;;;;;;3.42;2.50;;;;;;;;;;5118583;27;20106;-62
2021/03/23 07:06:42;;;;;;;3.42;2.60;;;;;;;;;;5097974;27;20040;-62
2021/03/23 07:09:20;;;;;;;3.05;2.58;;;;;;;;;;5081803;27;20074;-62
2021/03/23 07:12:10;;;;;;;4.22;2.70;;;;;;;;;;5098639;27;20046;-62
2021/03/23 07:14:40;;;;;;;4.68;3.28;;;;;;;;;;5121665;27;20043;-62
2021/03/23 07:17:09;;;;;;;4.25;3.35;;;;;;;;;;5091311;27;20608;-62
2021/03/23 07:20:09;;;;;;;4.93;3.53;;;;;;;;;;5116830;27;20043;-62
2021/03/23 07:22:40;;;;;;;4.63;3.55;;;;;;;;;;5098062;27;20044;-62
2021/03/23 07:25:29;;;;;;;5.93;4.45;;;;;;;;;;5116599;27;20617;-62
2021/03/23 07:28:23;;;;;;;6.75;4.90;;;;;;;;;;5099906;27;20034;-62
2021/03/23 07:31:09;;;;;;;7.43;5.60;;;;;;;;;;5121972;27;20102;-62
2021/03/23 07:33:56;;;;;;;7.65;5.40;;;;;;;;;;5125877;27;20024;-63
2021/03/23 07:36:43;;;;;;;9.45;6.07;;;;;;;;;;5106443;27;20160;-62
2021/03/23 07:39:14;;;;;;;6.05;4.07;;;;;;;;;;5084908;27;20075;-62
2021/03/23 07:41:45;;;;;;;5.93;3.13;;;;;;;;;;5119451;27;20032;-62
2021/03/23 07:44:31;;;;;;;4.40;2.70;;;;;;;;;;5091130;27;20035;-62
2021/03/23 07:46:58;;;;;;;4.25;2.70;;;;;;;;;;5119298;27;20061;-62
2021/03/23 07:49:38;;;;;;;5.25;3.70;;;;;;;;;;5083551;27;20047;-62
2021/03/23 07:52:22;;;;;;;5.85;4.13;;;;;;;;;;5102324;27;20039;-62
2021/03/23 07:54:47;;;;;;;5.38;4.10;;;;;;;;;;5121728;27;20036;-62
2021/03/23 07:57:37;;;;;;;6.95;4.90;;;;;;;;;;5086977;27;20480;-62
2021/03/23 08:00:31;;;;;;;6.82;5.25;;;;;;;;;;5116896;27;20481;-62
2021/03/23 08:03:00;;;;;;;7.93;6.03;;;;;;;;;;5120565;27;20044;-62
2021/03/23 08:05:53;;;;;;;8.15;6.40;;;;;;;;;;5089111;27;20556;-63
2021/03/23 08:08:49;;;;;;;8.88;6.95;;;;;;;;;;5104104;27;20950;-63
2021/03/23 08:11:26;;;;;;;9.35;7.28;;;;;;;;;;5120813;27;20035;-65
2021/03/23 08:14:29;;;;;;;9.45;7.70;;;;;;;;;;5102445;27;20031;-62
2021/03/23 08:17:32;;;;;;;9.57;7.90;;;;;;;;;;5120369;27;20123;-62
2021/03/23 08:20:16;;;;;;;11.77;9.57;;;;;;;;;;5102500;27;20118;-62
2021/03/23 08:22:58;;;;;;;11.48;9.45;;;;;;;;;;5119676;27;20080;-63
2021/03/23 08:25:30;;;;;;;11.98;10.45;;;;;;;;;;5085097;27;20032;-62
2021/03/23 08:28:07;;;;;;;;;;;;;;;;;;5102187;27;20047;-65
2021/03/23 08:30:43;;;;;;;10.52;8.65;;;;;;;;;;5102368;27;19942;-62
2021/03/23 08:33:15;;;;;;;9.93;8.70;;;;;;;;;;5102404;27;20032;-62
2021/03/23 08:35:56;;;;;;;10.52;8.45;;;;;;;;;;5119436;27;20784;-61
2021/03/23 08:38:52;;;;;;;16.38;13.48;;;;;;;;;;5120097;27;20035;-61
2021/03/23 08:41:18;;;;;;;11.10;8.50;;;;;;;;;;5100709;27;20043;-61
2021/03/23 08:43:43;;;;;;;9.30;7.50;;;;;;;;;;5119805;27;20059;-62
2021/03/23 08:46:21;;;;;;;7.65;6.10;;;;;;;;;;5101476;27;20441;-62
2021/03/23 08:48:57;;;;;;;8.88;6.50;;;;;;;;;;5106448;27;20079;-62
2021/03/23 08:51:24;;;;;;;12.07;9.93;;;;;;;;;;5107132;27;20070;-62
2021/03/23 08:54:01;;;;;;;12.13;9.60;;;;;;;;;;5100027;27;20067;-62
2021/03/23 08:56:50;;;;;;;10.88;8.73;;;;;;;;;;5102596;27;20514;-62
2021/03/23 08:59:31;;;;;;;10.55;8.52;;;;;;;;;;5090723;27;20042;-62
2021/03/23 09:01:56;;;;;;;11.15;8.18;;;;;;;;;;5123685;27;20122;-62
2021/03/23 09:04:22;;;;;;;10.98;8.43;;;;;;;;;;5098472;27;20024;-62
2021/03/23 09:06:59;;;;;;;12.43;10.23;;;;;;;;;;5120842;27;20373;-62
2021/03/23 09:09:25;;;;;;;10.30;7.57;;;;;;;;;;5085317;27;20133;-62
2021/03/23 09:12:07;;;;;;;11.95;8.00;;;;;;;;;;5117795;27;20035;-63
2021/03/23 09:15:32;;;;;;;10.32;7.93;;;;;;;;;;5102023;27;20060;-62
2021/03/23 09:18:15;;;;;;;11.25;9.50;;;;;;;;;;5118038;27;20048;-62
2021/03/23 09:20:40;;;;;;;9.18;7.18;;;;;;;;;;5119331;27;20437;-63
2021/03/23 09:23:18;;;;;;;10.50;7.57;;;;;;;;;;5120207;27;20035;-62
2021/03/23 09:25:52;;;;;;;9.35;6.82;;;;;;;;;;5119507;27;20067;-62
2021/03/23 09:29:12;;;;;;;10.73;7.43;;;;;;;;;;5106154;27;20871;-62
2021/03/23 09:31:20;;;;;;;11.65;7.50;;;;;;;;;;5112721;27;20048;-62
2021/03/23 09:33:51;;;;;;;10.10;7.38;;;;;;;;;;5099319;27;20034;-62
2021/03/23 09:36:19;;;;;;;9.15;6.75;;;;;;;;;;5099006;27;20039;-62
2021/03/23 09:38:48;;;;;;;8.65;6.25;;;;;;;;;;5118927;27;20065;-62
2021/03/23 09:41:20;;;;;;;9.27;6.32;;;;;;;;;;5100678;27;20055;-63
2021/03/23 09:43:46;;;;;;;9.13;6.80;;;;;;;;;;5116404;27;20907;-62
2021/03/23 09:46:42;;;;;;;9.75;7.18;;;;;;;;;;5098783;27;20035;-63
2021/03/23 09:49:13;;;;;;;2.72;2.30;;;;;;;;;;5110109;27;20043;-62
2021/03/23 09:51:42;;;;;;;10.68;7.20;;;;;;;;;;5114923;27;20043;-63
2021/03/23 09:55:01;;;;;;;10.57;8.20;;;;;;;;;;5088796;27;20453;-63
2021/03/23 09:57:28;;;;;;;10.57;7.50;;;;;;;;;;5083519;27;20035;-63
2021/03/23 09:59:56;;;;;;;10.13;7.25;;;;;;;;;;5098417;27;20854;-62
2021/03/23 10:02:30;;;;;;;10.57;7.63;;;;;;;;;;5083226;27;20031;-63
2021/03/23 10:04:56;;;;;;;10.32;7.43;;;;;;;;;;5101975;27;20494;-62
2021/03/23 10:07:35;;;;;;;11.80;7.30;;;;;;;;;;5067821;27;20826;-62
2021/03/23 10:10:24;;;;;;;11.45;7.97;;;;;;;;;;5111945;27;20502;-62
2021/03/23 10:12:50;;;;;;;11.02;7.53;;;;;;;;;;5116975;27;20429;-62
2021/03/23 10:15:31;;;;;;;12.70;8.07;;;;;;;;;;5098635;27;20031;-62
2021/03/23 10:18:22;;;;;;;10.80;7.13;;;;;;;;;;5100511;27;20038;-63
2021/03/23 10:21:02;;;;;;;11.27;7.55;;;;;;;;;;5118548;27;20040;-63
2021/03/23 10:23:29;;;;;;;12.25;8.25;;;;;;;;;;5117550;27;20741;-63
2021/03/23 10:25:54;;;;;;;12.52;8.38;;;;;;;;;;5099351;27;20031;-64
2021/03/23 10:28:29;;;;;;;10.75;8.00;;;;;;;;;;5116755;27;20028;-65
2021/03/23 10:30:59;;;;;;;12.52;8.27;;;;;;;;;;5088536;27;20051;-62
2021/03/23 10:33:29;;;;;;;11.77;7.30;;;;;;;;;;5099692;27;20036;-63
2021/03/23 10:35:59;;;;;;;11.68;7.75;;;;;;;;;;5103875;27;20036;-63
2021/03/23 10:38:24;;;;;;;12.68;8.45;;;;;;;;;;5117459;27;20129;-63
2021/03/23 10:40:51;;;;;;;11.95;7.60;;;;;;;;;;5098784;27;20516;-62
2021/03/23 10:43:31;;;;;;;11.27;7.80;;;;;;;;;;5098584;27;20059;-62
2021/03/23 10:45:58;;;;;;;11.45;7.72;;;;;;;;;;5116511;27;20032;-62
2021/03/23 10:48:38;;;;;;;10.18;7.10;;;;;;;;;;5098079;27;20040;-62
2021/03/23 10:51:28;;;;;;;11.52;7.43;;;;;;;;;;5086126;27;20043;-63
2021/03/23 10:54:07;;;;;;;10.30;7.50;;;;;;;;;;5096561;27;20064;-63
2021/03/23 10:56:34;;;;;;;10.60;7.22;;;;;;;;;;5104822;27;20108;-63
2021/03/23 10:59:11;;;;;;;11.35;8.18;;;;;;;;;;5098652;27;20889;-63
2021/03/23 11:01:55;;;;;;;11.90;7.85;;;;;;;;;;5072367;27;20569;-63
2021/03/23 11:04:20;;;;;;;10.32;6.80;;;;;;;;;;5105545;27;20497;-63
2021/03/23 11:06:46;;;;;;;10.15;7.28;;;;;;;;;;5103490;27;20031;-63
2021/03/23 11:09:15;;;;;;;11.18;7.60;;;;;;;;;;5101483;27;20038;-63
2021/03/23 11:11:41;;;;;;;11.00;7.30;;;;;;;;;;5119110;27;21202;-63
2021/03/23 11:14:06;;;;;;;10.68;7.30;;;;;;;;;;5086399;27;20036;-63
2021/03/23 11:16:33;;;;;;;10.32;6.55;;;;;;;;;;5102353;27;20032;-62
2021/03/23 11:19:00;;;;;;;11.05;7.35;;;;;;;;;;5101435;27;20028;-63
2021/03/23 11:21:26;;;;;;;9.45;6.95;;;;;;;;;;5102128;27;20066;-63
2021/03/23 11:23:54;;;;;;;11.40;8.25;;;;;;;;;;5101411;27;20825;-63
2021/03/23 11:26:25;;;;;;;10.05;7.50;;;;;;;;;;5090488;27;20039;-62
2021/03/23 11:28:53;;;;;;;11.10;7.50;;;;;;;;;;5119300;27;20505;-63
2021/03/23 11:31:20;;;;;;;11.23;7.95;;;;;;;;;;5102538;27;20032;-63
2021/03/23 11:33:46;;;;;;;10.18;7.35;;;;;;;;;;5101857;27;20475;-63
2021/03/23 11:36:11;;;;;;;11.88;8.30;;;;;;;;;;5107253;27;20040;-62
2021/03/23 11:38:37;;;;;;;10.75;7.32;;;;;;;;;;5102455;27;20796;-63
2021/03/23 11:41:04;;;;;;;12.02;7.70;;;;;;;;;;5107905;27;20551;-63
2021/03/23 11:43:41;;;;;;;10.70;7.30;;;;;;;;;;5119463;27;20541;-63
2021/03/23 11:46:16;;;;;;;11.07;7.47;;;;;;;;;;5118010;27;20036;-63
2021/03/23 11:48:43;;;;;;;10.80;7.20;;;;;;;;;;5083634;27;20044;-63
2021/03/23 11:51:08;;;;;;;11.25;6.60;;;;;;;;;;5084889;27;20035;-63
2021/03/23 11:53:34;;;;;;;11.15;7.45;;;;;;;;;;5119221;27;20034;-62
2021/03/23 11:56:00;;;;;;;10.90;7.65;;;;;;;;;;5101321;27;21028;-62
2021/03/23 11:58:26;;;;;;;10.55;7.03;;;;;;;;;;5099616;27;20035;-63
2021/03/23 12:00:52;;;;;;;10.02;7.13;;;;;;;;;;5100561;27;20595;-63
2021/03/23 12:03:18;;;;;;;10.25;7.57;;;;;;;;;;5098229;27;20400;-62
2021/03/23 12:05:44;;;;;;;10.77;7.03;;;;;;;;;;5083706;27;20047;-63
2021/03/23 12:08:16;;;;;;;10.88;7.28;;;;;;;;;;5119763;27;20611;-62
2021/03/23 12:10:47;;;;;;;10.35;7.40;;;;;;;;;;5106783;27;20068;-63
2021/03/23 12:13:16;;;;;;;11.07;7.63;;;;;;;;;;5100877;27;20438;-63
2021/03/23 12:15:55;;;;;;;10.43;7.82;;;;;;;;;;5119682;27;20123;-63
2021/03/23 12:18:21;;;;;;;11.75;7.68;;;;;;;;;;5107554;27;20035;-63
2021/03/23 12:20:54;;;;;;;10.23;7.93;;;;;;;;;;5084027;27;20040;-63
2021/03/23 12:23:20;;;;;;;10.80;7.93;;;;;;;;;;5104265;27;20031;-62
2021/03/23 12:25:46;;;;;;;12.02;7.82;;;;;;;;;;5119372;27;20040;-62
2021/03/23 12:28:11;;;;;;;11.48;8.18;;;;;;;;;;5118757;27;20036;-63
2021/03/23 12:30:37;;;;;;;10.80;7.78;;;;;;;;;;5118656;27;20059;-63
2021/03/23 12:33:02;;;;;;;11.73;8.25;;;;;;;;;;5119803;27;20039;-63
2021/03/23 12:35:28;;;;;;;10.52;8.20;;;;;;;;;;5118814;27;20053;-66
2021/03/23 12:37:59;;;;;;;11.65;8.60;;;;;;;;;;5120309;27;20035;-63
2021/03/23 12:40:25;;;;;;;11.27;8.20;;;;;;;;;;5107038;27;20082;-59
2021/03/23 12:42:51;;;;;;;10.20;7.78;;;;;;;;;;5082846;27;20032;-64
2021/03/23 12:45:29;;;;;;;11.18;9.45;;;;;;;;;;5107102;27;20411;-65
2021/03/23 12:51:03;;;;;;;10.77;8.05;;;;;;;;;;5087634;28;20473;-61
2021/03/23 12:53:28;;;;;;;11.90;8.30;;;;;;;;;;5091640;27;20109;-62
2021/03/23 12:55:54;;;;;;;11.82;9.15;;;;;;;;;;5089731;28;20043;-61
2021/03/23 12:58:24;;;;;;;11.55;8.43;;;;;;;;;;5088865;28;20048;-61
2021/03/23 13:00:50;;;;;;;12.02;8.93;;;;;;;;;;5087735;28;20041;-61
2021/03/23 13:03:16;;;;;;;11.43;8.43;;;;;;;;;;5091982;27;20748;-61
2021/03/23 13:05:42;;;;;;;11.48;9.02;;;;;;;;;;5089407;28;20032;-62
2021/03/23 13:08:18;;;;;;;11.52;8.82;;;;;;;;;;5091205;28;20040;-61
2021/03/23 13:10:45;;;;;;;13.55;9.93;;;;;;;;;;5090395;28;20045;-62
2021/03/23 13:13:27;;;;;;;17.30;10.48;;;;;;;;;;5070302;28;20097;-61
2021/03/23 13:15:53;;;;;;;11.80;8.57;;;;;;;;;;5074432;28;20087;-62
2021/03/23 13:18:20;;;;;;;12.07;9.23;;;;;;;;;;5088387;28;20029;-62
2021/03/23 13:20:45;;;;;;;20.77;11.63;;;;;;;;;;5098412;28;20132;-62
2021/03/23 13:23:19;;;;;;;17.95;11.13;;;;;;;;;;5087632;28;20039;-62
2021/03/23 13:25:50;;;;;;;18.35;10.02;;;;;;;;;;5089079;28;20508;-62
2021/03/23 13:28:40;;;;;;;22.30;11.02;;;;;;;;;;5089396;27;20086;-62
2021/03/23 13:31:06;;;;;;;16.77;10.15;;;;;;;;;;5090613;28;20084;-62
2021/03/23 13:33:37;;;;;;;17.48;11.07;;;;;;;;;;5088413;28;20029;-63
2021/03/23 13:36:06;;;;;;;17.63;10.77;;;;;;;;;;5069584;28;20028;-62
2021/03/23 13:38:32;;;;;;;17.92;10.75;;;;;;;;;;5089527;27;20028;-62
2021/03/23 13:40:57;;;;;;;18.25;10.80;;;;;;;;;;5070222;28;20036;-62
2021/03/23 13:43:23;;;;;;;15.68;10.23;;;;;;;;;;5088983;27;20063;-62
2021/03/23 13:45:55;;;;;;;20.77;11.13;;;;;;;;;;5088971;27;20486;-62
2021/03/23 13:48:23;;;;;;;19.27;10.65;;;;;;;;;;5088246;28;20033;-63
2021/03/23 13:50:49;;;;;;;19.20;11.55;;;;;;;;;;5091224;28;20043;-63
2021/03/23 13:53:16;;;;;;;18.35;11.10;;;;;;;;;;5085355;28;20082;-62
2021/03/23 13:55:43;;;;;;;19.08;11.05;;;;;;;;;;5072097;28;20052;-62
2021/03/23 13:58:08;;;;;;;16.80;10.80;;;;;;;;;;5086585;28;20491;-62
2021/03/23 14:00:40;;;;;;;20.70;10.80;;;;;;;;;;5069668;28;20026;-62
2021/03/23 14:03:06;;;;;;;18.48;10.65;;;;;;;;;;5074770;28;20892;-63
2021/03/23 14:05:32;;;;;;;18.83;10.20;;;;;;;;;;5083731;28;20044;-62
2021/03/23 14:07:59;;;;;;;20.08;11.40;;;;;;;;;;5074324;28;20067;-62
2021/03/23 14:10:26;;;;;;;17.38;9.98;;;;;;;;;;5075079;28;20578;-62
2021/03/23 14:12:52;;;;;;;20.63;11.88;;;;;;;;;;5073932;28;20025;-62
2021/03/23 14:15:22;;;;;;;19.90;10.70;;;;;;;;;;5073400;28;20366;-62
2021/03/23 14:17:48;;;;;;;21.13;11.50;;;;;;;;;;5066977;28;20040;-62
2021/03/23 14:20:16;;;;;;;18.23;10.75;;;;;;;;;;5073594;28;20040;-63
2021/03/23 14:22:41;;;;;;;19.23;11.07;;;;;;;;;;5074049;28;20056;-62
2021/03/23 14:25:27;;;;;;;18.30;10.15;;;;;;;;;;5074037;28;20033;-62
2021/03/23 14:27:53;;;;;;;18.20;10.75;;;;;;;;;;5074059;28;20036;-66
2021/03/23 14:30:20;;;;;;;17.52;10.43;;;;;;;;;;5076009;28;20040;-63
2021/03/23 14:32:54;;;;;;;17.52;10.15;;;;;;;;;;5075587;28;20075;-63
2021/03/23 14:35:19;;;;;;;12.23;9.63;;;;;;;;;;5054253;28;20044;-63
2021/03/23 14:37:48;;;;;;;13.18;10.68;;;;;;;;;;5076031;28;21279;-62
2021/03/23 14:40:28;;;;;;;11.45;9.43;;;;;;;;;;5074340;28;20542;-62
2021/03/23 14:42:53;;;;;;;13.77;10.90;;;;;;;;;;5075192;28;20029;-63
2021/03/23 14:45:19;;;;;;;13.32;10.43;;;;;;;;;;5057891;28;20065;-62
2021/03/23 14:47:44;;;;;;;11.68;9.85;;;;;;;;;;5071764;28;20041;-62
2021/03/23 14:50:10;;;;;;;12.80;9.45;;;;;;;;;;5075068;28;20040;-62
2021/03/23 14:52:36;;;;;;;12.50;8.85;;;;;;;;;;5074043;28;20569;-62
2021/03/23 14:55:03;;;;;;;11.45;8.82;;;;;;;;;;5055507;28;20394;-63
2021/03/23 14:57:29;;;;;;;13.65;9.23;;;;;;;;;;5058683;28;20024;-67
2021/03/23 14:59:55;;;;;;;15.18;9.32;;;;;;;;;;5055051;28;20431;-62